createdAt,value
2023-01-11T00:01:38.482Z,92.90
2023-01-11T00:04:05.526Z,92.80
2023-01-11T00:06:32.497Z,93.20
2023-01-11T00:09:01.791Z,93.10
2023-01-11T00:11:29.252Z,93.40
2023-01-11T00:13:56.188Z,93.40
2023-01-11T00:16:23.302Z,93.40
2023-01-11T00:18:51.497Z,93.40
2023-01-11T00:21:21.805Z,93.20
2023-01-11T00:23:52.434Z,92.60
2023-01-11T00:26:22.146Z,92.90
2023-01-11T00:28:50.295Z,93.00
2023-01-11T00:31:21.332Z,92.40
2023-01-11T00:34:21.971Z,92.50
2023-01-11T00:36:51.721Z,92.90
2023-01-11T00:39:18.956Z,92.30
2023-01-11T00:42:07.473Z,92.40
2023-01-11T00:44:55.611Z,92.80
2023-01-11T00:47:41.981Z,92.70
2023-01-11T00:50:10.427Z,92.90
2023-01-11T00:52:39.906Z,93.00
2023-01-11T00:57:50.226Z,93.10
2023-01-11T01:00:21.914Z,92.90
2023-01-11T01:02:49.929Z,93.50
2023-01-11T01:05:22.050Z,93.40
2023-01-11T01:07:50.412Z,93.30
2023-01-11T01:10:19.840Z,93.50
2023-01-11T01:13:08.641Z,94.10
2023-01-11T01:15:36.239Z,93.80
2023-01-11T01:18:03.366Z,94.00
2023-01-11T01:20:30.323Z,94.00
2023-01-11T01:22:57.735Z,94.10
2023-01-11T01:25:24.894Z,94.60
2023-01-11T01:27:51.913Z,94.30
2023-01-11T01:30:19.311Z,94.00
2023-01-11T01:32:48.726Z,94.00
2023-01-11T01:35:17.925Z,93.70
2023-01-11T01:37:45.012Z,93.80
2023-01-11T01:40:14.369Z,93.40
2023-01-11T01:42:41.282Z,93.70
2023-01-11T01:45:29.566Z,94.10
2023-01-11T01:48:03.419Z,93.10
2023-01-11T01:50:55.447Z,92.80
2023-01-11T01:53:36.986Z,93.00
2023-01-11T01:56:17.965Z,92.50
2023-01-11T01:59:01.617Z,92.20
2023-01-11T02:01:47.046Z,91.80
2023-01-11T02:04:44.184Z,91.40
2023-01-11T02:07:31.878Z,90.90
2023-01-11T02:10:21.840Z,91.10
2023-01-11T02:13:09.699Z,91.10
2023-01-11T02:15:38.067Z,90.70
2023-01-11T02:18:13.182Z,90.70
2023-01-11T02:21:25.867Z,90.40
2023-01-11T02:24:52.546Z,90.10
2023-01-11T02:28:09.047Z,90.20
2023-01-11T02:31:36.880Z,89.70
2023-01-11T02:34:55.531Z,89.20
2023-01-11T02:38:04.242Z,89.20
2023-01-11T02:41:52.533Z,89.00
2023-01-11T02:44:57.995Z,88.70
2023-01-11T02:48:20.350Z,88.50
2023-01-11T02:51:01.987Z,88.20
2023-01-11T02:53:35.377Z,87.80
2023-01-11T02:56:16.927Z,87.90
2023-01-11T02:58:49.359Z,87.70
2023-01-11T03:01:19.580Z,87.50
2023-01-11T03:03:46.825Z,87.60
2023-01-11T03:06:35.432Z,87.30
2023-01-11T03:09:45.550Z,87.50
2023-01-11T03:13:06.553Z,87.20
2023-01-11T03:16:08.750Z,87.20
2023-01-11T03:19:12.984Z,86.80
2023-01-11T03:22:45.976Z,86.90
2023-01-11T03:25:52.809Z,86.70
2023-01-11T03:28:52.474Z,86.70
2023-01-11T03:31:40.977Z,86.80
2023-01-11T03:34:28.861Z,87.00
2023-01-11T03:37:19.115Z,86.90
2023-01-11T03:40:16.994Z,86.60
2023-01-11T03:43:11.238Z,86.40
2023-01-11T03:46:01.007Z,86.40
2023-01-11T03:48:47.389Z,87.40
2023-01-11T03:51:27.955Z,87.20
2023-01-11T03:54:06.665Z,87.20
2023-01-11T03:57:20.347Z,87.50
2023-01-11T03:59:48.695Z,87.10
2023-01-11T04:02:35.721Z,87.20
2023-01-11T04:05:03.861Z,87.20
2023-01-11T04:07:30.990Z,87.60
2023-01-11T04:10:01.292Z,87.80
2023-01-11T04:12:31.065Z,88.30
2023-01-11T04:14:58.520Z,88.30
2023-01-11T04:17:25.564Z,88.20
2023-01-11T04:19:52.669Z,88.00
2023-01-11T04:22:19.582Z,88.30
2023-01-11T04:24:46.508Z,88.40
2023-01-11T04:27:13.597Z,88.40
2023-01-11T04:29:40.564Z,88.30
2023-01-11T04:32:07.517Z,88.70
2023-01-11T04:34:34.461Z,88.50
2023-01-11T04:37:01.599Z,88.60
2023-01-11T04:39:28.572Z,88.70
2023-01-11T04:42:16.111Z,88.70
2023-01-11T04:44:43.165Z,89.00
2023-01-11T04:47:10.270Z,88.80
2023-01-11T04:49:37.566Z,89.00
2023-01-11T04:52:05.113Z,89.20
2023-01-11T04:54:32.329Z,89.10
2023-01-11T04:56:59.321Z,89.20
2023-01-11T04:59:26.423Z,89.20
2023-01-11T05:01:53.404Z,89.40
2023-01-11T05:04:20.830Z,89.50
2023-01-11T05:06:48.209Z,89.50
2023-01-11T05:09:18.603Z,89.70
2023-01-11T05:11:46.296Z,89.70
2023-01-11T05:14:17.083Z,89.90
2023-01-11T05:16:44.484Z,90.00
2023-01-11T05:19:12.595Z,90.10
2023-01-11T05:21:42.367Z,91.00
2023-01-11T05:24:16.715Z,90.40
2023-01-11T05:26:46.173Z,90.30
2023-01-11T05:29:20.730Z,90.60
2023-01-11T05:31:48.142Z,90.60
2023-01-11T05:34:17.678Z,91.30
2023-01-11T05:36:45.530Z,91.60
2023-01-11T05:39:14.890Z,91.70
2023-01-11T05:41:42.043Z,91.80
2023-01-11T05:44:31.882Z,92.10
2023-01-11T05:46:59.562Z,92.00
2023-01-11T05:49:26.558Z,92.10
2023-01-11T05:51:53.645Z,93.10
2023-01-11T05:54:20.706Z,94.80
2023-01-11T05:56:47.956Z,96.40
2023-01-11T05:59:14.973Z,97.40
2023-01-11T06:01:42.152Z,98.10
2023-01-11T06:04:09.269Z,98.10
2023-01-11T06:06:36.409Z,98.10
2023-01-11T06:09:04.832Z,97.90
2023-01-11T06:11:32.336Z,97.90
2023-01-11T06:13:59.382Z,97.50
2023-01-11T06:16:26.427Z,97.20
2023-01-11T06:18:56.297Z,96.90
2023-01-11T06:21:24.302Z,96.40
2023-01-11T06:23:51.920Z,96.50
2023-01-11T06:26:22.728Z,96.40
2023-01-11T06:28:52.020Z,95.80
2023-01-11T06:31:20.133Z,96.40
2023-01-11T06:33:47.565Z,95.50
2023-01-11T06:36:16.671Z,95.40
2023-01-11T06:38:47.327Z,95.10
2023-01-11T06:41:14.413Z,95.10
2023-01-11T06:43:42.488Z,94.90
2023-01-11T06:46:15.639Z,94.90
2023-01-11T06:48:44.852Z,94.80
2023-01-11T06:51:14.230Z,95.10
2023-01-11T06:53:44.121Z,95.00
2023-01-11T06:56:53.897Z,94.70
2023-01-11T06:59:23.442Z,94.40
2023-01-11T07:01:54.117Z,94.70
2023-01-11T07:04:21.623Z,95.00
2023-01-11T07:06:48.617Z,94.80
2023-01-11T07:09:17.846Z,94.80
2023-01-11T07:11:44.803Z,94.90
2023-01-11T07:14:15.247Z,94.70
2023-01-11T07:16:42.148Z,95.20
2023-01-11T07:19:09.770Z,95.20
2023-01-11T07:21:36.773Z,95.30
2023-01-11T07:24:06.660Z,95.10
2023-01-11T07:26:35.658Z,95.40
2023-01-11T07:29:02.864Z,95.30
2023-01-11T07:31:30.365Z,95.40
2023-01-11T07:33:57.376Z,95.40
2023-01-11T07:36:24.610Z,95.30
2023-01-11T07:38:51.534Z,95.30
2023-01-11T07:41:39.092Z,95.40
2023-01-11T07:44:07.169Z,95.30
2023-01-11T07:46:37.472Z,95.30
2023-01-11T07:49:04.495Z,95.10
2023-01-11T07:51:31.700Z,95.40
2023-01-11T07:54:02.387Z,95.40
2023-01-11T07:56:31.252Z,95.30
2023-01-11T07:58:58.496Z,95.40
2023-01-11T08:01:26.710Z,95.40
2023-01-11T08:03:54.243Z,95.70
2023-01-11T08:06:21.147Z,95.80
2023-01-11T08:08:48.343Z,95.80
2023-01-11T08:11:33.888Z,95.90
2023-01-11T08:14:20.015Z,95.90
2023-01-11T08:16:48.489Z,96.10
2023-01-11T08:19:15.849Z,96.20
2023-01-11T08:21:44.617Z,96.40
2023-01-11T08:24:11.804Z,96.20
2023-01-11T08:26:38.805Z,96.60
2023-01-11T08:29:10.200Z,96.60
2023-01-11T08:31:37.495Z,97.00
2023-01-11T08:34:06.569Z,96.90
2023-01-11T08:36:43.416Z,97.90
2023-01-11T08:39:11.475Z,97.20
2023-01-11T08:41:44.442Z,97.60
2023-01-11T08:44:22.358Z,97.50
2023-01-11T08:47:04.641Z,98.10
2023-01-11T08:49:45.188Z,99.90
2023-01-11T08:52:21.150Z,99.90
2023-01-11T08:54:48.850Z,99.90
2023-01-11T08:57:16.287Z,99.90
2023-01-11T09:00:16.154Z,99.90
2023-01-11T09:02:34.733Z,99.90
2023-01-11T09:05:04.492Z,99.90
2023-01-11T09:07:31.531Z,99.90
2023-01-11T09:10:03.723Z,99.90
2023-01-11T09:12:32.799Z,99.90
2023-01-11T09:15:00.397Z,99.90
2023-01-11T09:17:28.208Z,99.90
2023-01-11T09:19:55.124Z,99.90
2023-01-11T09:22:22.506Z,99.90
2023-01-11T09:24:49.808Z,99.90
2023-01-11T09:27:17.206Z,99.90
2023-01-11T09:29:44.462Z,99.90
2023-01-11T09:32:11.552Z,99.90
2023-01-11T09:34:39.163Z,99.90
2023-01-11T09:37:07.157Z,99.90
2023-01-11T09:39:35.332Z,99.90
2023-01-11T09:42:32.373Z,99.90
2023-01-11T09:45:18.562Z,99.90
2023-01-11T09:48:11.860Z,99.90
2023-01-11T09:50:47.867Z,99.90
2023-01-11T09:53:38.200Z,99.90
2023-01-11T09:56:15.073Z,99.90
2023-01-11T09:59:19.379Z,99.90
2023-01-11T10:02:44.094Z,99.90
2023-01-11T10:05:56.198Z,99.90
2023-01-11T10:18:22.928Z,99.90
2023-01-11T10:19:41.303Z,99.90
2023-01-11T10:22:32.404Z,99.90
2023-01-11T10:25:24.930Z,99.90
2023-01-11T10:28:13.281Z,99.90
2023-01-11T10:30:59.847Z,99.90
2023-01-11T10:33:47.914Z,99.90
2023-01-11T10:37:07.039Z,99.90
2023-01-11T10:40:37.354Z,99.90
2023-01-11T10:43:27.853Z,99.90
2023-01-11T10:48:45.318Z,99.90
2023-01-11T10:51:46.841Z,99.90
2023-01-11T10:54:36.509Z,99.90
2023-01-11T10:58:14.160Z,99.90
2023-01-11T11:01:13.300Z,99.90
2023-01-11T11:04:40.160Z,99.90
2023-01-11T11:07:38.953Z,99.90
2023-01-11T11:15:01.362Z,99.90
2023-01-11T11:17:50.062Z,99.90
2023-01-11T11:20:31.453Z,99.90
2023-01-11T11:23:00.569Z,99.90
2023-01-11T11:25:42.663Z,99.90
2023-01-11T11:28:34.275Z,99.90
2023-01-11T11:31:13.962Z,99.90
2023-01-11T11:33:47.265Z,99.90
2023-01-11T11:36:22.953Z,99.90
2023-01-11T11:39:24.252Z,99.90
2023-01-11T11:42:17.773Z,99.90
2023-01-11T11:45:09.927Z,99.90
2023-01-11T11:47:39.501Z,99.90
2023-01-11T11:53:06.641Z,99.90
2023-01-11T11:55:36.625Z,99.90
2023-01-11T11:58:18.890Z,99.90
2023-01-11T12:00:54.942Z,99.90
2023-01-11T12:03:34.082Z,99.90
2023-01-11T12:06:08.812Z,99.90
2023-01-11T12:08:38.326Z,99.90
2023-01-11T12:11:17.059Z,99.90
2023-01-11T12:14:00.932Z,99.90
2023-01-11T12:16:44.233Z,99.90
2023-01-11T12:19:52.649Z,99.90
2023-01-11T12:22:37.190Z,99.90
2023-01-11T12:25:42.095Z,99.90
2023-01-11T12:28:48.599Z,99.90
2023-01-11T12:35:39.388Z,99.90
2023-01-11T12:39:03.317Z,99.90
2023-01-11T12:42:01.309Z,99.90
2023-01-11T12:45:15.137Z,99.90
2023-01-11T12:49:03.009Z,99.90
2023-01-11T12:52:46.109Z,99.90
2023-01-11T12:55:55.226Z,99.90
2023-01-11T12:58:55.093Z,99.90
2023-01-11T13:02:07.956Z,99.90
2023-01-11T13:05:18.452Z,99.90
2023-01-11T13:08:31.033Z,99.90
2023-01-11T13:11:45.874Z,99.90
2023-01-11T13:15:17.381Z,99.90
2023-01-11T13:18:34.987Z,99.90
2023-01-11T13:21:29.801Z,99.90
2023-01-11T13:24:46.240Z,99.90
2023-01-11T13:27:23.712Z,99.90
2023-01-11T13:30:03.487Z,99.90
2023-01-11T13:32:43.064Z,99.90
2023-01-11T13:39:58.715Z,99.90
2023-01-11T13:43:25.611Z,99.90
2023-01-11T13:46:53.042Z,99.90
2023-01-11T13:50:06.178Z,99.90
2023-01-11T13:53:17.945Z,99.90
2023-01-11T13:56:25.467Z,99.90
2023-01-11T13:59:23.214Z,99.90
2023-01-11T14:02:47.340Z,99.90
2023-01-11T14:05:45.865Z,99.90
2023-01-11T14:09:55.982Z,99.90
2023-01-11T14:13:14.825Z,99.90
2023-01-11T14:20:12.066Z,99.90
2023-01-11T14:23:17.419Z,99.90
2023-01-11T14:26:40.394Z,99.90
2023-01-11T14:30:08.663Z,99.90
2023-01-11T14:33:25.698Z,99.90
2023-01-11T14:36:45.722Z,99.90
2023-01-11T14:39:54.579Z,99.90
2023-01-11T14:45:51.822Z,99.90
2023-01-11T14:49:42.468Z,99.90
2023-01-11T14:52:39.204Z,99.90
2023-01-11T14:55:29.871Z,99.90
2023-01-11T14:58:28.017Z,99.90
2023-01-11T15:00:57.686Z,99.90
2023-01-11T15:03:59.042Z,99.90
2023-01-11T15:07:02.257Z,99.90
2023-01-11T15:10:41.357Z,99.90
2023-01-11T15:12:50.455Z,99.90
2023-01-11T15:15:22.661Z,99.90
2023-01-11T15:18:16.730Z,99.90
2023-01-11T15:21:15.587Z,99.90
2023-01-11T15:24:43.007Z,99.90
2023-01-11T15:27:40.711Z,99.90
2023-01-11T15:30:30.165Z,99.90
2023-01-11T15:36:19.383Z,99.90
2023-01-11T15:39:03.927Z,99.90
2023-01-11T15:42:21.140Z,99.90
2023-01-11T15:46:05.284Z,99.90
2023-01-11T15:49:57.163Z,99.90
2023-01-11T15:58:36.250Z,99.90
2023-01-11T16:01:30.195Z,99.90
2023-01-11T16:04:50.301Z,99.90
2023-01-11T16:08:36.807Z,99.90
2023-01-11T16:11:58.178Z,99.90
2023-01-11T16:15:31.923Z,99.90
2023-01-11T16:18:30.500Z,99.90
2023-01-11T16:21:18.001Z,99.90
2023-01-11T16:27:39.256Z,99.90
2023-01-11T16:31:04.536Z,99.90
2023-01-11T16:34:09.100Z,99.90
2023-01-11T16:36:49.472Z,99.90
2023-01-11T16:39:35.981Z,99.90
2023-01-11T16:42:10.288Z,99.90
2023-01-11T16:46:07.516Z,99.90
2023-01-11T16:48:36.942Z,99.90
2023-01-11T16:51:16.471Z,99.90
2023-01-11T16:54:02.268Z,99.90
2023-01-11T16:56:38.322Z,99.90
2023-01-11T16:59:14.479Z,99.90
2023-01-11T17:02:33.648Z,99.90
2023-01-11T17:05:02.040Z,99.90
2023-01-11T17:07:30.769Z,99.90
2023-01-11T17:10:25.625Z,99.90
2023-01-11T17:13:53.513Z,99.90
2023-01-11T17:16:37.266Z,99.90
2023-01-11T17:19:29.945Z,99.90
2023-01-11T17:22:24.686Z,99.90
2023-01-11T17:25:21.166Z,99.90
2023-01-11T17:28:02.821Z,99.90
2023-01-11T17:30:32.416Z,99.90
2023-01-11T17:33:00.661Z,99.90
2023-01-11T17:35:41.335Z,99.90
2023-01-11T17:38:17.956Z,99.90
2023-01-11T17:40:45.868Z,99.90
2023-01-11T17:43:43.481Z,99.90
2023-01-11T17:46:26.525Z,99.90
2023-01-11T17:49:00.677Z,99.90
2023-01-11T17:51:34.993Z,99.90
2023-01-11T17:54:05.397Z,99.90
2023-01-11T17:56:42.270Z,99.90
2023-01-11T18:02:15.184Z,99.90
2023-01-11T18:04:44.720Z,99.90
2023-01-11T18:07:20.024Z,99.90
2023-01-11T18:10:00.962Z,99.90
2023-01-11T18:12:34.465Z,99.90
2023-01-11T18:15:06.997Z,99.90
2023-01-11T18:17:39.954Z,99.90
2023-01-11T18:20:32.550Z,99.90
2023-01-11T18:23:16.821Z,99.90
2023-01-11T18:25:46.101Z,99.90
2023-01-11T18:28:26.121Z,99.90
2023-01-11T18:30:59.225Z,99.90
2023-01-11T18:33:33.312Z,99.90
2023-01-11T18:36:04.258Z,99.90
2023-01-11T18:38:36.358Z,99.90
2023-01-11T18:44:13.630Z,99.90
2023-01-11T18:49:21.743Z,99.90
2023-01-11T18:51:48.845Z,99.90
2023-01-11T18:54:18.177Z,99.90
2023-01-11T18:56:45.606Z,99.90
2023-01-11T18:59:12.659Z,99.90
2023-01-11T19:01:54.516Z,99.90
2023-01-11T19:04:26.884Z,99.90
2023-01-11T19:06:53.939Z,99.90
2023-01-11T19:09:21.107Z,99.90
2023-01-11T19:11:48.115Z,99.90
2023-01-11T19:14:15.391Z,99.90
2023-01-11T19:16:42.532Z,99.90
2023-01-11T19:19:09.970Z,99.90
2023-01-11T19:21:37.426Z,99.90
2023-01-11T19:24:08.637Z,99.90
2023-01-11T19:26:39.165Z,99.90
2023-01-11T19:29:07.422Z,99.90
2023-01-11T19:31:34.536Z,99.90
2023-01-11T19:34:07.379Z,99.90
2023-01-11T19:36:34.736Z,99.90
2023-01-11T19:39:02.167Z,99.90
2023-01-11T19:41:49.605Z,99.90
2023-01-11T19:44:16.878Z,99.90
2023-01-11T19:46:44.195Z,99.90
2023-01-11T19:49:11.987Z,99.90
2023-01-11T19:51:40.120Z,99.90
2023-01-11T19:54:08.460Z,99.90
2023-01-11T19:56:35.511Z,99.90
2023-01-11T19:59:02.808Z,99.90
2023-01-11T20:01:33.193Z,99.90
2023-01-11T20:04:00.579Z,99.90
2023-01-11T20:06:27.772Z,99.90
2023-01-11T20:08:55.806Z,99.90
2023-01-11T20:11:23.808Z,99.90
2023-01-11T20:13:54.443Z,99.90
2023-01-11T20:16:24.585Z,99.90
2023-01-11T20:18:57.523Z,99.90
2023-01-11T20:21:31.573Z,99.90
2023-01-11T20:23:58.933Z,99.90
2023-01-11T20:26:28.248Z,99.90
2023-01-11T20:28:59.864Z,99.90
2023-01-11T20:31:33.068Z,99.90
2023-01-11T20:34:07.209Z,99.90
2023-01-11T20:36:34.704Z,99.90
2023-01-11T20:39:02.913Z,99.90
2023-01-11T20:41:48.944Z,99.90
2023-01-11T20:44:28.127Z,99.90
2023-01-11T20:46:56.823Z,99.90
2023-01-11T20:49:31.427Z,99.90
2023-01-11T20:51:59.077Z,99.90
2023-01-11T20:54:26.547Z,99.90
2023-01-11T20:57:03.200Z,99.90
2023-01-11T20:59:39.011Z,99.90
2023-01-11T21:02:07.811Z,99.90
2023-01-11T21:04:35.891Z,99.90
2023-01-11T21:07:02.986Z,99.90
2023-01-11T21:09:30.279Z,99.90
2023-01-11T21:11:57.595Z,99.90
2023-01-11T21:14:24.589Z,99.90
2023-01-11T21:16:55.078Z,99.90
2023-01-11T21:19:22.940Z,99.90
2023-01-11T21:21:49.937Z,99.90
2023-01-11T21:24:17.422Z,99.90
2023-01-11T21:26:45.616Z,99.90
2023-01-11T21:29:13.282Z,99.90
2023-01-11T21:31:42.104Z,99.90
2023-01-11T21:34:13.109Z,99.90
2023-01-11T21:36:40.534Z,99.90
2023-01-11T21:39:09.197Z,99.90
2023-01-11T21:41:55.161Z,99.90
2023-01-11T21:44:31.925Z,99.90
2023-01-11T21:47:09.069Z,99.90
2023-01-11T21:49:36.205Z,99.90
2023-01-11T21:52:03.450Z,99.90
2023-01-11T21:54:30.600Z,99.90
2023-01-11T21:56:57.724Z,99.90
2023-01-11T21:59:25.192Z,99.90
2023-01-11T22:01:55.435Z,99.90
2023-01-11T22:04:22.706Z,99.90
2023-01-11T22:06:55.077Z,99.90
2023-01-11T22:09:25.803Z,99.90
2023-01-11T22:11:53.288Z,99.90
2023-01-11T22:14:23.171Z,99.90
2023-01-11T22:16:53.601Z,99.90
2023-01-11T22:19:20.787Z,99.90
2023-01-11T22:21:53.527Z,99.90
2023-01-11T22:24:23.849Z,99.90
2023-01-11T22:26:50.775Z,99.90
2023-01-11T22:29:18.512Z,99.90
2023-01-11T22:31:54.817Z,99.90
2023-01-11T22:34:23.270Z,99.90
2023-01-11T22:36:50.333Z,99.90
2023-01-11T22:39:23.419Z,99.90
2023-01-11T22:41:51.501Z,99.90
2023-01-11T22:44:19.525Z,99.90
2023-01-11T22:46:47.419Z,99.90
2023-01-11T22:49:21.975Z,99.90
2023-01-11T22:51:51.299Z,99.90
2023-01-11T22:54:21.677Z,99.90
2023-01-11T22:56:49.004Z,99.90
2023-01-11T22:59:19.367Z,99.90
2023-01-11T23:01:57.759Z,99.90
2023-01-11T23:04:24.856Z,99.90
2023-01-11T23:06:52.082Z,99.90
2023-01-11T23:09:19.370Z,99.90
2023-01-11T23:12:05.364Z,99.90
2023-01-11T23:14:33.684Z,99.90
2023-01-11T23:17:08.732Z,99.90
2023-01-11T23:19:41.349Z,99.90
2023-01-11T23:22:10.280Z,99.90
2023-01-11T23:24:37.970Z,99.90
2023-01-11T23:27:06.099Z,99.90
2023-01-11T23:29:33.569Z,99.90
2023-01-11T23:32:00.697Z,99.90
2023-01-11T23:34:28.075Z,99.90
2023-01-11T23:36:55.673Z,99.90
2023-01-11T23:39:23.707Z,99.90
2023-01-11T23:42:09.617Z,99.90
2023-01-11T23:44:36.632Z,99.90
2023-01-11T23:47:21.896Z,99.90
2023-01-11T23:49:52.901Z,99.90
2023-01-11T23:52:25.736Z,99.90
2023-01-11T23:54:53.164Z,99.90
2023-01-11T23:57:22.690Z,99.90
2023-01-11T23:59:49.906Z,99.90
